createdAt,value
2018-03-24T00:00:13.766Z,3.18
2018-03-24T00:01:13.771Z,3.07
2018-03-24T00:02:13.777Z,3.18
2018-03-24T00:03:13.782Z,3.02
2018-03-24T00:04:13.786Z,3.02
2018-03-24T00:05:13.796Z,3.06
2018-03-24T00:06:13.795Z,3.09
2018-03-24T00:07:13.804Z,2.97
2018-03-24T00:08:13.806Z,2.95
2018-03-24T00:09:13.813Z,2.92
2018-03-24T00:10:13.821Z,2.92
2018-03-24T00:11:13.821Z,2.97
2018-03-24T00:12:13.839Z,2.89
2018-03-24T00:13:13.829Z,2.88
2018-03-24T00:14:13.840Z,2.92
2018-03-24T00:15:13.842Z,2.85
2018-03-24T00:16:13.849Z,2.91
2018-03-24T00:17:13.854Z,2.87
2018-03-24T00:18:13.856Z,2.87
2018-03-24T00:19:13.864Z,2.82
2018-03-24T00:20:13.866Z,2.79
2018-03-24T00:21:13.872Z,2.73
2018-03-24T00:22:13.880Z,2.74
2018-03-24T00:23:13.880Z,2.74
2018-03-24T00:24:13.886Z,2.74
2018-03-24T00:25:13.891Z,2.79
2018-03-24T00:26:13.894Z,2.74
2018-03-24T00:27:13.904Z,2.76
2018-03-24T00:28:13.902Z,2.73
2018-03-24T00:29:13.912Z,2.61
2018-03-24T00:30:13.913Z,2.63
2018-03-24T00:31:13.917Z,2.59
2018-03-24T00:32:13.920Z,2.56
2018-03-24T00:33:13.929Z,2.44
2018-03-24T00:34:13.933Z,2.46
2018-03-24T00:35:13.938Z,2.48
2018-03-24T00:36:13.945Z,2.44
2018-03-24T00:37:13.946Z,2.44
2018-03-24T00:38:13.951Z,2.37
2018-03-24T00:39:13.955Z,2.44
2018-03-24T00:40:13.959Z,2.44
2018-03-24T00:41:13.963Z,2.45
2018-03-24T00:42:13.969Z,2.38
2018-03-24T00:43:13.972Z,2.45
2018-03-24T00:44:13.979Z,2.45
2018-03-24T00:45:13.985Z,2.48
2018-03-24T00:46:13.999Z,2.45
2018-03-24T00:47:14.000Z,2.46
2018-03-24T00:48:13.998Z,2.45
2018-03-24T00:49:14.002Z,2.44
2018-03-24T00:50:14.006Z,2.44
2018-03-24T00:51:14.010Z,2.46
2018-03-24T00:52:14.018Z,2.44
2018-03-24T00:53:14.023Z,2.44
2018-03-24T00:54:14.028Z,2.37
2018-03-24T00:55:14.028Z,2.38
2018-03-24T00:56:14.032Z,2.40
2018-03-24T00:57:14.037Z,2.28
2018-03-24T00:58:14.067Z,2.30
2018-03-24T00:59:14.046Z,2.30
2018-03-24T01:00:14.051Z,2.31
2018-03-24T01:01:14.057Z,2.27
2018-03-24T01:02:14.062Z,2.27
2018-03-24T01:03:14.065Z,2.35
2018-03-24T01:04:14.082Z,2.30
2018-03-24T01:05:14.072Z,2.20
2018-03-24T01:06:14.078Z,2.26
2018-03-24T01:07:14.085Z,2.20
2018-03-24T01:08:14.088Z,2.17
2018-03-24T01:09:14.090Z,2.16
2018-03-24T01:10:14.097Z,2.17
2018-03-24T01:11:14.101Z,2.16
2018-03-24T01:12:14.107Z,2.17
2018-03-24T01:13:14.111Z,2.15
2018-03-24T01:14:14.114Z,2.06
2018-03-24T01:15:14.119Z,2.17
2018-03-24T01:16:14.121Z,2.15
2018-03-24T01:17:14.129Z,2.15
2018-03-24T01:18:14.132Z,2.19
2018-03-24T01:19:14.145Z,2.16
2018-03-24T01:20:14.142Z,2.20
2018-03-24T01:21:14.153Z,2.16
2018-03-24T01:22:14.149Z,2.12
2018-03-24T01:23:14.154Z,2.20
2018-03-24T01:24:14.157Z,2.15
2018-03-24T01:25:14.162Z,2.08
2018-03-24T01:26:14.165Z,2.06
2018-03-24T01:27:14.172Z,2.09
2018-03-24T01:28:14.175Z,2.08
2018-03-24T01:29:14.178Z,2.10
2018-03-24T01:30:14.190Z,2.09
2018-03-24T01:31:14.189Z,2.06
2018-03-24T01:32:14.192Z,1.89
2018-03-24T01:33:14.198Z,1.87
2018-03-24T01:34:14.204Z,1.87
2018-03-24T01:35:14.205Z,1.89
2018-03-24T01:36:14.208Z,1.87
2018-03-24T01:37:14.212Z,1.89
2018-03-24T01:38:14.219Z,1.90
2018-03-24T01:39:14.221Z,1.87
2018-03-24T01:40:14.228Z,1.94
2018-03-24T01:41:14.234Z,1.89
2018-03-24T01:42:14.235Z,1.75
2018-03-24T01:43:14.239Z,1.82
2018-03-24T01:44:14.250Z,1.80
2018-03-24T01:45:14.254Z,1.89
2018-03-24T01:46:14.252Z,1.87
2018-03-24T01:47:14.261Z,1.87
2018-03-24T01:48:14.268Z,1.91
2018-03-24T01:49:14.264Z,1.91
2018-03-24T01:50:14.269Z,1.87
2018-03-24T01:51:14.312Z,1.82
2018-03-24T01:52:14.275Z,1.83
2018-03-24T01:53:14.283Z,1.78
2018-03-24T01:54:14.285Z,1.73
2018-03-24T01:55:14.314Z,1.73
2018-03-24T01:56:14.293Z,1.72
2018-03-24T01:57:14.297Z,1.76
2018-03-24T01:58:14.301Z,1.76
2018-03-24T01:59:14.308Z,1.73
2018-03-24T02:00:14.315Z,1.75
2018-03-24T02:01:14.315Z,1.72
2018-03-24T02:02:14.320Z,1.73
2018-03-24T02:03:14.324Z,1.80
2018-03-24T02:04:14.326Z,1.75
2018-03-24T02:05:14.353Z,1.75
2018-03-24T02:06:14.334Z,1.79
2018-03-24T02:07:14.340Z,1.68
2018-03-24T02:08:14.343Z,1.65
2018-03-24T02:09:14.349Z,1.58
2018-03-24T02:10:14.357Z,1.62
2018-03-24T02:11:14.359Z,1.65
2018-03-24T02:12:14.359Z,1.68
2018-03-24T02:13:14.363Z,1.69
2018-03-24T02:14:14.368Z,1.54
2018-03-24T02:15:14.372Z,1.55
2018-03-24T02:16:14.374Z,1.46
2018-03-24T02:17:14.382Z,1.57
2018-03-24T02:18:14.387Z,1.51
2018-03-24T02:19:14.388Z,1.50
2018-03-24T02:20:14.390Z,1.47
2018-03-24T02:21:14.395Z,1.50
2018-03-24T02:22:14.404Z,1.50
2018-03-24T02:23:14.403Z,1.55
2018-03-24T02:24:14.406Z,1.57
2018-03-24T02:25:14.423Z,1.54
2018-03-24T02:26:14.417Z,1.54
2018-03-24T02:27:14.420Z,1.52
2018-03-24T02:28:14.433Z,1.50
2018-03-24T02:29:14.432Z,1.54
2018-03-24T02:30:14.433Z,1.47
2018-03-24T02:31:14.435Z,1.51
2018-03-24T02:32:14.439Z,1.47
2018-03-24T02:33:14.457Z,1.46
2018-03-24T02:34:14.448Z,1.47
2018-03-24T02:35:14.453Z,1.55
2018-03-24T02:36:14.456Z,1.44
2018-03-24T02:37:14.459Z,1.44
2018-03-24T02:38:14.461Z,1.42
2018-03-24T02:39:14.473Z,1.34
2018-03-24T02:40:14.476Z,1.37
2018-03-24T02:41:14.475Z,1.28
2018-03-24T02:42:14.540Z,1.14
2018-03-24T02:43:14.484Z,1.16
2018-03-24T02:44:14.494Z,1.16
2018-03-24T02:45:14.493Z,1.16
2018-03-24T02:46:14.494Z,1.25
2018-03-24T02:47:14.502Z,1.22
2018-03-24T02:48:14.507Z,1.24
2018-03-24T02:49:14.505Z,1.14
2018-03-24T02:50:14.509Z,1.16
2018-03-24T02:51:14.532Z,1.10
2018-03-24T02:52:14.523Z,1.14
2018-03-24T02:53:14.520Z,1.16
2018-03-24T02:54:14.524Z,1.07
2018-03-24T02:55:14.534Z,1.04
2018-03-24T02:56:14.532Z,1.04
2018-03-24T02:57:14.538Z,1.15
2018-03-24T02:58:14.538Z,1.03
2018-03-24T02:59:14.542Z,1.08
2018-03-24T03:00:14.550Z,1.07
2018-03-24T03:01:14.561Z,0.98
2018-03-24T03:02:14.557Z,1.08
2018-03-24T03:03:14.564Z,1.03
2018-03-24T03:04:14.561Z,1.01
2018-03-24T03:05:14.568Z,1.07
2018-03-24T03:06:14.570Z,1.10
2018-03-24T03:07:14.575Z,1.12
2018-03-24T03:08:14.578Z,1.18
2018-03-24T03:09:14.582Z,1.16
2018-03-24T03:10:14.584Z,1.14
2018-03-24T03:11:14.592Z,1.07
2018-03-24T03:12:14.593Z,1.06
2018-03-24T03:13:14.614Z,1.08
2018-03-24T03:14:14.600Z,1.19
2018-03-24T03:15:14.601Z,1.14
2018-03-24T03:16:14.605Z,1.10
2018-03-24T03:17:14.617Z,1.04
2018-03-24T03:18:14.614Z,1.03
2018-03-24T03:19:14.623Z,1.01
2018-03-24T03:20:14.634Z,1.12
2018-03-24T03:21:14.624Z,1.00
2018-03-24T03:22:14.631Z,1.01
2018-03-24T03:23:14.687Z,0.88
2018-03-24T03:24:14.634Z,0.89
2018-03-24T03:25:14.639Z,0.88
2018-03-24T03:26:14.641Z,0.97
2018-03-24T03:27:14.645Z,1.06
2018-03-24T03:28:14.650Z,1.00
2018-03-24T03:29:14.652Z,0.97
2018-03-24T03:30:14.659Z,0.94
2018-03-24T03:31:14.662Z,0.89
2018-03-24T03:32:14.664Z,0.96
2018-03-24T03:33:14.668Z,0.97
2018-03-24T03:34:14.674Z,0.96
2018-03-24T03:35:14.678Z,1.00
2018-03-24T03:36:14.678Z,1.07
2018-03-24T03:37:14.683Z,1.00
2018-03-24T03:38:14.684Z,0.94
2018-03-24T03:39:14.690Z,0.89
2018-03-24T03:40:14.692Z,0.97
2018-03-24T03:41:14.698Z,0.89
2018-03-24T03:42:14.707Z,0.92
2018-03-24T03:43:14.712Z,0.94
2018-03-24T03:44:14.705Z,0.94
2018-03-24T03:45:14.712Z,0.96
2018-03-24T03:46:14.731Z,0.83
2018-03-24T03:47:14.719Z,0.86
2018-03-24T03:48:14.725Z,0.94
2018-03-24T03:49:14.727Z,0.92
2018-03-24T03:50:14.732Z,0.92
2018-03-24T03:51:14.733Z,0.94
2018-03-24T03:52:14.740Z,0.88
2018-03-24T03:53:14.741Z,0.85
2018-03-24T03:54:14.746Z,0.89
2018-03-24T03:55:14.748Z,0.86
2018-03-24T03:56:14.753Z,0.79
2018-03-24T03:57:14.754Z,0.89
2018-03-24T03:58:14.757Z,0.85
2018-03-24T03:59:14.760Z,0.83
2018-03-24T04:00:14.767Z,0.88
2018-03-24T04:01:14.768Z,0.83
2018-03-24T04:02:14.773Z,0.92
2018-03-24T04:03:14.780Z,0.97
2018-03-24T04:04:14.781Z,0.89
2018-03-24T04:05:14.781Z,0.86
2018-03-24T04:06:14.787Z,0.86
2018-03-24T04:07:14.793Z,0.94
2018-03-24T04:08:14.795Z,0.94
2018-03-24T04:09:14.798Z,0.88
2018-03-24T04:10:14.801Z,0.83
2018-03-24T04:11:14.804Z,0.78
2018-03-24T04:12:14.807Z,0.82
2018-03-24T04:13:14.814Z,0.75
2018-03-24T04:14:14.818Z,0.76
2018-03-24T04:15:14.834Z,0.72
2018-03-24T04:16:14.832Z,0.76
2018-03-24T04:17:14.824Z,0.67
2018-03-24T04:18:14.830Z,0.75
2018-03-24T04:19:14.834Z,0.71
2018-03-24T04:20:14.837Z,0.79
2018-03-24T04:21:14.842Z,0.65
2018-03-24T04:22:14.850Z,0.61
2018-03-24T04:23:14.849Z,0.68
2018-03-24T04:24:14.848Z,0.70
2018-03-24T04:25:14.854Z,0.78
2018-03-24T04:26:14.858Z,0.70
2018-03-24T04:27:14.859Z,0.68
2018-03-24T04:28:14.862Z,0.70
2018-03-24T04:29:14.866Z,0.68
2018-03-24T04:30:14.869Z,0.64
2018-03-24T04:31:14.876Z,0.58
2018-03-24T04:32:14.882Z,0.49
2018-03-24T04:33:14.881Z,0.51
2018-03-24T04:34:14.944Z,0.46
2018-03-24T04:35:14.887Z,0.52
2018-03-24T04:36:14.891Z,0.51
2018-03-24T04:37:14.895Z,0.48
2018-03-24T04:38:14.898Z,0.48
2018-03-24T04:39:14.902Z,0.57
2018-03-24T04:40:14.905Z,0.48
2018-03-24T04:41:14.909Z,0.49
2018-03-24T04:42:14.910Z,0.43
2018-03-24T04:43:14.914Z,0.52
2018-03-24T04:44:14.916Z,0.53
2018-03-24T04:45:14.922Z,0.57
2018-03-24T04:46:14.925Z,0.53
2018-03-24T04:47:14.926Z,0.58
2018-03-24T04:48:14.973Z,0.53
2018-03-24T04:49:14.939Z,0.60
2018-03-24T04:50:14.936Z,0.61
2018-03-24T04:51:14.949Z,0.48
2018-03-24T04:52:14.949Z,0.51
2018-03-24T04:53:14.950Z,0.57
2018-03-24T04:54:14.950Z,0.61
2018-03-24T04:55:14.953Z,0.52
2018-03-24T04:56:14.960Z,0.57
2018-03-24T04:57:14.957Z,0.45
2018-03-24T04:58:14.974Z,0.53
2018-03-24T04:59:14.968Z,0.53
2018-03-24T05:00:14.968Z,0.58
2018-03-24T05:01:14.973Z,0.57
2018-03-24T05:02:14.976Z,0.68
2018-03-24T05:03:14.981Z,0.62
2018-03-24T05:04:14.984Z,0.68
2018-03-24T05:05:14.987Z,0.62
2018-03-24T05:06:14.996Z,0.72
2018-03-24T05:07:14.992Z,0.78
2018-03-24T05:08:15.004Z,0.70
2018-03-24T05:09:14.999Z,0.65
2018-03-24T05:10:15.008Z,0.71
2018-03-24T05:11:15.009Z,0.71
2018-03-24T05:12:15.013Z,0.71
2018-03-24T05:13:15.014Z,0.61
2018-03-24T05:14:15.016Z,0.71
2018-03-24T05:15:15.019Z,0.75
2018-03-24T05:16:15.030Z,0.78
2018-03-24T05:17:15.038Z,0.71
2018-03-24T05:18:15.036Z,0.68
2018-03-24T05:19:15.053Z,0.65
2018-03-24T05:20:15.037Z,0.67
2018-03-24T05:21:15.039Z,0.67
2018-03-24T05:22:15.041Z,0.67
2018-03-24T05:23:15.047Z,0.70
2018-03-24T05:24:15.049Z,0.62
2018-03-24T05:25:15.052Z,0.76
2018-03-24T05:26:15.087Z,0.67
2018-03-24T05:27:15.061Z,0.75
2018-03-24T05:28:15.067Z,0.75
2018-03-24T05:29:15.065Z,0.75
2018-03-24T05:30:15.068Z,0.71
2018-03-24T05:31:15.077Z,0.70
2018-03-24T05:32:15.078Z,0.76
2018-03-24T05:33:15.081Z,0.71
2018-03-24T05:34:15.084Z,0.78
2018-03-24T05:35:15.103Z,0.80
2018-03-24T05:36:15.096Z,0.82
2018-03-24T05:37:15.117Z,0.72
2018-03-24T05:38:15.097Z,0.79
2018-03-24T05:39:15.107Z,0.76
2018-03-24T05:40:15.102Z,0.70
2018-03-24T05:41:15.110Z,0.85
2018-03-24T05:42:15.110Z,0.78
2018-03-24T05:43:15.117Z,0.82
2018-03-24T05:44:15.116Z,0.82
2018-03-24T05:45:15.121Z,0.82
2018-03-24T05:46:15.125Z,0.82
2018-03-24T05:47:15.129Z,0.82
2018-03-24T05:48:15.130Z,0.83
2018-03-24T05:49:15.134Z,0.68
2018-03-24T05:50:15.139Z,0.82
2018-03-24T05:51:15.140Z,0.75
2018-03-24T05:52:15.168Z,0.72
2018-03-24T05:53:15.146Z,0.49
2018-03-24T05:54:15.159Z,0.70
2018-03-24T05:55:15.158Z,0.78
2018-03-24T05:56:15.162Z,0.76
2018-03-24T05:57:15.162Z,0.85
2018-03-24T05:58:15.177Z,0.94
2018-03-24T05:59:15.168Z,0.90
2018-03-24T06:00:15.174Z,0.85
2018-03-24T06:01:15.179Z,0.85
2018-03-24T06:02:15.177Z,0.86
2018-03-24T06:03:15.183Z,1.00
2018-03-24T06:04:15.187Z,1.04
2018-03-24T06:05:15.193Z,1.04
2018-03-24T06:06:15.211Z,1.04
2018-03-24T06:07:15.200Z,1.16
2018-03-24T06:08:15.200Z,1.08
2018-03-24T06:09:15.207Z,1.21
2018-03-24T06:10:15.208Z,1.19
2018-03-24T06:11:15.216Z,1.16
2018-03-24T06:12:15.216Z,1.21
2018-03-24T06:13:15.221Z,1.22
2018-03-24T06:14:15.222Z,1.29
2018-03-24T06:15:15.226Z,1.33
2018-03-24T06:16:15.229Z,1.40
2018-03-24T06:17:15.275Z,1.43
2018-03-24T06:18:15.236Z,1.44
2018-03-24T06:19:15.241Z,1.44
2018-03-24T06:20:15.261Z,1.46
2018-03-24T06:21:15.265Z,1.44
2018-03-24T06:22:15.251Z,1.52
2018-03-24T06:23:15.275Z,1.61
2018-03-24T06:24:15.259Z,1.68
2018-03-24T06:25:15.263Z,1.62
2018-03-24T06:26:15.266Z,1.64
2018-03-24T06:27:15.271Z,1.76
2018-03-24T06:28:15.275Z,1.82
2018-03-24T06:29:15.275Z,1.75
2018-03-24T06:30:15.282Z,1.82
2018-03-24T06:31:15.285Z,1.69
2018-03-24T06:32:15.288Z,1.79
2018-03-24T06:33:15.295Z,1.71
2018-03-24T06:34:15.299Z,1.83
2018-03-24T06:35:15.303Z,1.83
2018-03-24T06:36:15.305Z,1.83
2018-03-24T06:37:15.310Z,1.87
2018-03-24T06:38:15.325Z,1.89
2018-03-24T06:39:15.320Z,1.90
2018-03-24T06:40:15.318Z,1.91
2018-03-24T06:41:15.323Z,1.93
2018-03-24T06:42:15.327Z,1.99
2018-03-24T06:43:15.330Z,1.91
2018-03-24T06:44:15.333Z,2.01
2018-03-24T06:45:15.337Z,2.06
2018-03-24T06:46:15.348Z,1.93
2018-03-24T06:47:15.346Z,1.91
2018-03-24T06:48:15.349Z,2.02
2018-03-24T06:49:15.353Z,2.13
2018-03-24T06:50:15.366Z,2.09
2018-03-24T06:51:15.361Z,2.08
2018-03-24T06:52:15.364Z,2.10
2018-03-24T06:53:15.377Z,2.19
2018-03-24T06:54:15.375Z,2.09
2018-03-24T06:55:15.386Z,2.26
2018-03-24T06:56:15.384Z,2.22
2018-03-24T06:57:15.386Z,2.28
2018-03-24T06:58:15.394Z,2.26
2018-03-24T06:59:15.392Z,2.27
2018-03-24T07:00:15.394Z,2.30
2018-03-24T07:01:15.398Z,2.41
2018-03-24T07:02:15.406Z,2.31
2018-03-24T07:03:15.407Z,2.37
2018-03-24T07:04:15.414Z,2.40
2018-03-24T07:05:15.418Z,2.46
2018-03-24T07:06:15.421Z,2.37
2018-03-24T07:07:15.432Z,2.45
2018-03-24T07:08:15.430Z,2.51
2018-03-24T07:09:15.433Z,2.48
2018-03-24T07:10:15.438Z,2.45
2018-03-24T07:11:15.442Z,2.46
2018-03-24T07:12:15.443Z,2.56
2018-03-24T07:13:15.448Z,2.56
2018-03-24T07:14:15.460Z,2.56
2018-03-24T07:15:15.458Z,2.69
2018-03-24T07:16:15.463Z,2.70
2018-03-24T07:17:15.465Z,2.64
2018-03-24T07:18:15.469Z,2.66
2018-03-24T07:19:15.473Z,2.81
2018-03-24T07:20:15.478Z,2.84
2018-03-24T07:21:15.533Z,2.85
2018-03-24T07:22:15.488Z,2.84
2018-03-24T07:23:15.490Z,2.97
2018-03-24T07:24:15.496Z,2.95
2018-03-24T07:25:15.497Z,3.06
2018-03-24T07:26:15.504Z,3.10
2018-03-24T07:27:15.508Z,3.12
2018-03-24T07:28:15.511Z,3.06
2018-03-24T07:29:15.522Z,3.09
2018-03-24T07:30:15.528Z,3.13
2018-03-24T07:31:15.525Z,3.12
2018-03-24T07:32:15.531Z,3.23
2018-03-24T07:33:15.539Z,3.34
2018-03-24T07:34:15.537Z,3.21
2018-03-24T07:35:15.548Z,3.28
2018-03-24T07:36:15.553Z,3.40
2018-03-24T07:37:15.552Z,3.40
2018-03-24T07:38:15.562Z,3.50
2018-03-24T07:39:15.578Z,3.58
2018-03-24T07:40:15.564Z,3.64
2018-03-24T07:41:15.566Z,3.67
2018-03-24T07:42:15.581Z,3.64
2018-03-24T07:43:15.576Z,3.67
2018-03-24T07:44:15.581Z,3.67
2018-03-24T07:45:15.585Z,3.68
2018-03-24T07:46:15.593Z,3.68
2018-03-24T07:47:15.595Z,3.65
2018-03-24T07:48:15.598Z,3.64
2018-03-24T07:49:15.604Z,3.67
2018-03-24T07:50:15.611Z,3.65
2018-03-24T07:51:15.614Z,3.82
2018-03-24T07:52:15.621Z,3.86
2018-03-24T07:53:15.620Z,3.88
2018-03-24T07:54:15.626Z,3.92
2018-03-24T07:55:15.633Z,4.07
2018-03-24T07:56:15.634Z,4.01
2018-03-24T07:57:15.642Z,4.08
2018-03-24T07:58:15.645Z,4.18
2018-03-24T07:59:15.650Z,4.16
2018-03-24T08:00:15.653Z,4.14
2018-03-24T08:01:15.659Z,4.12
2018-03-24T08:02:15.662Z,4.16
2018-03-24T08:03:15.666Z,4.19
2018-03-24T08:04:15.675Z,4.21
2018-03-24T08:05:15.674Z,4.28
2018-03-24T08:06:15.681Z,4.40
2018-03-24T08:07:15.686Z,4.43
2018-03-24T08:08:15.692Z,4.47
2018-03-24T08:09:15.695Z,4.67
2018-03-24T08:10:15.719Z,4.59
2018-03-24T08:11:15.708Z,4.54
2018-03-24T08:12:15.717Z,4.54
2018-03-24T08:13:15.716Z,4.58
2018-03-24T08:14:15.720Z,4.64
2018-03-24T08:15:15.732Z,4.75
2018-03-24T08:16:15.732Z,4.79
2018-03-24T08:17:15.737Z,4.86
2018-03-24T08:18:15.740Z,4.86
2018-03-24T08:19:15.745Z,4.89
2018-03-24T08:20:15.747Z,4.80
2018-03-24T08:21:15.754Z,4.94
2018-03-24T08:22:15.761Z,4.83
2018-03-24T08:23:15.767Z,4.98
2018-03-24T08:24:15.771Z,5.01
2018-03-24T08:25:15.776Z,5.01
2018-03-24T08:26:15.779Z,5.01
2018-03-24T08:27:15.785Z,4.99
2018-03-24T08:28:15.790Z,5.13
2018-03-24T08:29:15.794Z,5.14
2018-03-24T08:30:15.802Z,5.10
2018-03-24T08:31:15.805Z,5.17
2018-03-24T08:32:15.816Z,5.17
2018-03-24T08:33:15.826Z,5.32
2018-03-24T08:34:15.821Z,5.37
2018-03-24T08:35:15.834Z,5.45
2018-03-24T08:36:15.830Z,5.68
2018-03-24T08:37:15.838Z,5.53
2018-03-24T08:38:15.840Z,5.56
2018-03-24T08:39:15.846Z,5.52
2018-03-24T08:40:15.853Z,5.52
2018-03-24T08:41:15.857Z,5.59
2018-03-24T08:42:15.861Z,5.59
2018-03-24T08:43:15.869Z,5.57
2018-03-24T08:44:15.871Z,5.60
2018-03-24T08:45:15.890Z,5.64
2018-03-24T08:46:15.882Z,5.60
2018-03-24T08:47:15.891Z,5.63
2018-03-24T08:48:56.465Z,5.68
2018-03-24T08:49:56.446Z,5.71
2018-03-24T08:52:00.565Z,5.73
2018-03-24T08:53:00.549Z,5.68
2018-03-24T08:55:04.446Z,5.91
2018-03-24T08:56:04.469Z,6.09
2018-03-24T08:58:08.477Z,6.22
2018-03-24T08:59:08.449Z,6.28
2018-03-24T09:01:12.474Z,6.19
2018-03-24T09:02:12.472Z,6.25
2018-03-24T09:04:05.421Z,6.33
2018-03-24T09:05:05.402Z,6.30
2018-03-24T09:07:09.424Z,6.21
2018-03-24T09:08:09.405Z,6.30
2018-03-24T09:10:13.397Z,6.35
2018-03-24T09:11:13.400Z,6.46
2018-03-24T09:13:17.417Z,6.41
2018-03-24T09:14:17.401Z,6.44
2018-03-24T09:16:21.400Z,6.38
2018-03-24T09:17:21.402Z,6.44
2018-03-24T09:19:25.462Z,6.48
2018-03-24T09:20:25.445Z,6.58
2018-03-24T09:22:29.462Z,6.50
2018-03-24T09:23:29.447Z,6.71
2018-03-24T09:25:33.443Z,6.91
2018-03-24T09:26:33.445Z,6.86
2018-03-24T09:28:37.472Z,6.95
2018-03-24T09:29:37.452Z,6.87
2018-03-24T09:31:41.470Z,6.90
2018-03-24T09:32:41.450Z,6.97
2018-03-24T09:34:45.473Z,6.99
2018-03-24T09:35:45.452Z,7.12
2018-03-24T09:37:49.613Z,7.13
2018-03-24T09:38:49.457Z,7.22
2018-03-24T09:40:53.466Z,7.22
2018-03-24T09:41:53.465Z,7.22
2018-03-24T09:43:46.411Z,7.19
2018-03-24T09:44:46.392Z,7.24
2018-03-24T09:46:50.414Z,7.23
2018-03-24T09:47:50.398Z,7.22
2018-03-24T09:49:54.402Z,7.19
2018-03-24T09:50:54.399Z,7.26
2018-03-24T09:51:54.407Z,7.32
2018-03-24T09:52:54.426Z,7.41
2018-03-24T09:53:54.419Z,7.47
2018-03-24T09:54:54.425Z,7.55
2018-03-24T09:55:54.451Z,7.53
2018-03-24T09:56:54.442Z,7.56
2018-03-24T09:57:54.445Z,7.53
2018-03-24T09:58:54.451Z,7.47
2018-03-24T09:59:54.459Z,7.49
2018-03-24T10:00:54.461Z,7.58
2018-03-24T10:01:54.474Z,7.62
2018-03-24T10:02:54.485Z,7.75
2018-03-24T10:03:54.508Z,7.75
2018-03-24T10:04:54.500Z,7.75
2018-03-24T10:05:54.497Z,7.79
2018-03-24T10:06:54.512Z,7.82
2018-03-24T10:07:54.507Z,7.67
2018-03-24T10:08:54.516Z,7.72
2018-03-24T10:09:54.542Z,7.78
2018-03-24T10:10:54.566Z,7.81
2018-03-24T10:11:54.535Z,8.04
2018-03-24T10:12:54.562Z,8.15
2018-03-24T10:13:54.548Z,8.21
2018-03-24T10:14:54.555Z,8.28
2018-03-24T10:15:54.593Z,8.12
2018-03-24T10:16:54.617Z,8.17
2018-03-24T10:17:54.574Z,8.12
2018-03-24T10:18:54.586Z,8.04
2018-03-24T10:19:54.593Z,8.21
2018-03-24T10:20:54.594Z,8.36
2018-03-24T10:21:54.640Z,8.55
2018-03-24T10:22:54.631Z,8.62
2018-03-24T10:23:54.614Z,8.62
2018-03-24T10:24:54.645Z,8.55
2018-03-24T10:25:54.628Z,8.63
2018-03-24T10:26:54.649Z,8.75
2018-03-24T10:27:54.640Z,8.62
2018-03-24T10:28:54.713Z,8.66
2018-03-24T10:29:54.667Z,8.72
2018-03-24T10:30:54.662Z,8.71
2018-03-24T10:31:54.669Z,8.84
2018-03-24T10:32:54.679Z,8.94
2018-03-24T10:33:54.686Z,8.76
2018-03-24T10:34:54.691Z,8.78
2018-03-24T10:35:54.697Z,8.87
2018-03-24T10:36:54.703Z,8.88
2018-03-24T10:37:54.711Z,9.05
2018-03-24T10:38:54.727Z,9.02
2018-03-24T10:39:54.730Z,8.88
2018-03-24T10:40:54.737Z,8.91
2018-03-24T10:41:54.739Z,9.10
2018-03-24T10:42:54.751Z,9.21
2018-03-24T10:43:54.756Z,9.24
2018-03-24T10:44:54.767Z,9.38
2018-03-24T10:45:54.773Z,9.61
2018-03-24T10:46:54.777Z,9.79
2018-03-24T10:47:54.784Z,9.93
2018-03-24T10:48:54.812Z,10.34
2018-03-24T10:49:54.799Z,10.81
2018-03-24T10:50:54.806Z,11.06
2018-03-24T10:51:54.852Z,11.01
2018-03-24T10:52:54.855Z,11.46
2018-03-24T10:53:54.832Z,11.34
2018-03-24T10:54:54.839Z,10.95
2018-03-24T10:55:54.858Z,10.81
2018-03-24T10:56:54.859Z,10.63
2018-03-24T10:57:54.874Z,10.91
2018-03-24T10:58:54.878Z,10.81
2018-03-24T10:59:54.899Z,10.91
2018-03-24T11:00:54.892Z,11.09
2018-03-24T11:01:54.942Z,10.86
2018-03-24T11:02:54.912Z,10.99
2018-03-24T11:03:54.918Z,11.07
2018-03-24T11:04:54.924Z,11.06
2018-03-24T11:05:54.936Z,11.13
2018-03-24T11:06:54.947Z,11.36
2018-03-24T11:07:54.955Z,11.47
2018-03-24T11:08:54.965Z,11.52
2018-03-24T11:09:54.998Z,11.74
2018-03-24T11:10:55.001Z,11.53
2018-03-24T11:11:54.986Z,11.52
2018-03-24T11:12:54.993Z,11.54
2018-03-24T11:13:55.004Z,11.52
2018-03-24T11:14:55.011Z,11.50
2018-03-24T11:15:55.033Z,11.44
2018-03-24T11:16:55.117Z,11.57
2018-03-24T11:17:55.036Z,11.93
2018-03-24T11:18:55.054Z,12.19
2018-03-24T11:19:55.115Z,12.42
2018-03-24T11:20:55.070Z,12.45
2018-03-24T11:21:55.085Z,12.88
2018-03-24T11:22:55.086Z,13.07
2018-03-24T11:23:55.094Z,13.30
2018-03-24T11:24:55.115Z,13.40
2018-03-24T11:25:55.138Z,13.40
2018-03-24T11:26:55.128Z,13.44
2018-03-24T11:27:55.135Z,13.41
2018-03-24T11:28:55.144Z,13.54
2018-03-24T11:29:55.155Z,13.36
2018-03-24T11:30:55.167Z,13.11
2018-03-24T11:31:55.179Z,13.51
2018-03-24T11:32:55.194Z,13.58
2018-03-24T11:33:55.223Z,13.46
2018-03-24T11:34:55.212Z,13.44
2018-03-24T11:35:55.226Z,13.47
2018-03-24T11:36:55.234Z,13.58
2018-03-24T11:37:55.246Z,13.70
2018-03-24T11:38:55.258Z,13.73
2018-03-24T11:39:55.269Z,14.04
2018-03-24T11:40:55.282Z,13.83
2018-03-24T11:41:55.292Z,14.19
2018-03-24T11:42:55.317Z,14.17
2018-03-24T11:43:55.319Z,14.34
2018-03-24T11:44:55.377Z,14.28
2018-03-24T11:45:55.344Z,14.42
2018-03-24T11:46:55.356Z,14.56
2018-03-24T11:47:55.511Z,14.57
2018-03-24T11:48:55.379Z,14.54
2018-03-24T11:49:55.394Z,14.61
2018-03-24T11:50:55.415Z,14.90
2018-03-24T11:51:55.414Z,15.09
2018-03-24T11:52:55.427Z,15.27
2018-03-24T11:53:55.441Z,14.65
2018-03-24T11:54:55.453Z,14.87
2018-03-24T11:55:55.464Z,14.71
2018-03-24T11:56:55.477Z,14.14
2018-03-24T11:57:55.491Z,13.95
2018-03-24T11:58:55.500Z,14.25
2018-03-24T11:59:55.513Z,14.53
2018-03-24T12:00:55.534Z,14.53
2018-03-24T12:01:55.592Z,14.27
2018-03-24T12:02:55.609Z,14.60
2018-03-24T12:03:55.564Z,14.46
2018-03-24T12:04:55.577Z,14.61
2018-03-24T12:05:55.587Z,14.67
2018-03-24T12:06:55.604Z,14.72
2018-03-24T12:07:55.623Z,14.95
2018-03-24T12:08:55.625Z,14.60
2018-03-24T12:09:55.637Z,15.01
2018-03-24T12:10:55.652Z,15.13
2018-03-24T12:11:55.661Z,15.01
2018-03-24T12:12:55.685Z,15.12
2018-03-24T12:13:55.688Z,15.23
2018-03-24T12:14:55.708Z,15.31
2018-03-24T12:15:55.714Z,15.42
2018-03-24T12:16:55.728Z,14.61
2018-03-24T12:17:55.736Z,14.44
2018-03-24T12:18:55.751Z,14.16
2018-03-24T12:19:55.769Z,14.39
2018-03-24T12:20:55.774Z,14.86
2018-03-24T12:21:55.794Z,15.01
2018-03-24T12:22:55.803Z,15.17
2018-03-24T12:23:55.817Z,15.39
2018-03-24T12:24:55.828Z,15.72
2018-03-24T12:25:55.840Z,15.81
2018-03-24T12:26:55.857Z,16.00
2018-03-24T12:27:55.879Z,15.78
2018-03-24T12:28:55.880Z,15.99
2018-03-24T12:29:55.896Z,16.16
2018-03-24T12:30:55.910Z,15.94
2018-03-24T12:31:55.930Z,16.14
2018-03-24T12:32:55.938Z,16.16
2018-03-24T12:33:55.954Z,16.41
2018-03-24T12:34:55.966Z,16.40
2018-03-24T12:35:55.978Z,16.26
2018-03-24T12:36:55.991Z,16.15
2018-03-24T12:37:56.006Z,15.79
2018-03-24T12:38:56.023Z,15.82
2018-03-24T12:39:56.042Z,15.85
2018-03-24T12:40:56.099Z,15.93
2018-03-24T12:41:56.067Z,16.06
2018-03-24T12:42:56.079Z,16.07
2018-03-24T12:43:56.094Z,16.16
2018-03-24T12:44:56.108Z,16.18
2018-03-24T12:45:56.129Z,16.12
2018-03-24T12:46:56.139Z,16.26
2018-03-24T12:47:56.155Z,16.25
2018-03-24T12:48:56.168Z,15.97
2018-03-24T12:49:56.194Z,16.33
2018-03-24T12:50:56.198Z,16.42
2018-03-24T12:51:56.222Z,16.49
2018-03-24T12:52:56.230Z,16.80
2018-03-24T12:53:56.249Z,16.49
2018-03-24T12:54:56.261Z,16.27
2018-03-24T12:55:56.277Z,16.38
2018-03-24T12:56:56.294Z,16.09
2018-03-24T12:57:56.312Z,16.40
2018-03-24T12:58:56.326Z,16.25
2018-03-24T12:59:56.340Z,16.03
2018-03-24T13:00:56.354Z,15.96
2018-03-24T13:01:56.368Z,15.85
2018-03-24T13:02:56.387Z,15.75
2018-03-24T13:03:56.409Z,15.60
2018-03-24T13:04:56.420Z,15.52
2018-03-24T13:05:56.440Z,15.36
2018-03-24T13:06:56.448Z,15.42
2018-03-24T13:07:56.464Z,15.33
2018-03-24T13:08:56.494Z,15.39
2018-03-24T13:09:56.498Z,15.56
2018-03-24T13:10:56.510Z,15.75
2018-03-24T13:11:56.528Z,15.59
2018-03-24T13:12:56.595Z,15.68
2018-03-24T13:13:56.563Z,15.85
2018-03-24T13:14:56.584Z,16.15
2018-03-24T13:15:56.590Z,15.70
2018-03-24T13:16:56.604Z,15.84
2018-03-24T13:17:56.623Z,16.01
2018-03-24T13:18:56.634Z,16.03
2018-03-24T13:19:56.651Z,15.85
2018-03-24T13:20:56.669Z,16.16
2018-03-24T13:21:56.682Z,16.12
2018-03-24T13:22:56.695Z,16.18
2018-03-24T13:23:56.710Z,15.99
2018-03-24T13:24:56.728Z,16.15
2018-03-24T13:25:56.743Z,15.99
2018-03-24T13:26:56.765Z,16.20
2018-03-24T13:27:56.773Z,16.20
2018-03-24T13:28:56.787Z,16.20
2018-03-24T13:29:56.802Z,16.09
2018-03-24T13:30:56.817Z,16.23
2018-03-24T13:31:56.832Z,16.34
2018-03-24T13:32:56.851Z,16.65
2018-03-24T13:33:56.863Z,16.42